createdAt,value
2019-01-31T00:00:51.948Z,99256.64
2019-01-31T00:03:57.959Z,99252.74
2019-01-31T00:07:13.532Z,99252.74
2019-01-31T00:10:28.451Z,99260.53
2019-01-31T00:13:41.752Z,99260.09
2019-01-31T00:16:56.219Z,99253.14
2019-01-31T00:19:39.792Z,99253.53
2019-01-31T00:22:35.434Z,99248.34
2019-01-31T00:25:53.846Z,99256.13
2019-01-31T00:29:01.378Z,99257.42
2019-01-31T00:31:51.454Z,99249.64
2019-01-31T00:34:48.395Z,99249.64
2019-01-31T00:37:43.635Z,99266.27
2019-01-31T00:40:40.120Z,99260.89
2019-01-31T00:43:33.866Z,99262.62
2019-01-31T00:46:46.375Z,99262.94
2019-01-31T00:49:49.980Z,99262.34
2019-01-31T00:52:41.796Z,99260.81
2019-01-31T00:56:08.100Z,99267.50
2019-01-31T00:59:20.651Z,99269.94
2019-01-31T01:02:14.155Z,99277.48
2019-01-31T01:05:22.400Z,99272.09
2019-01-31T01:08:27.052Z,99278.27
2019-01-31T01:11:26.551Z,99278.27
2019-01-31T01:14:36.372Z,99285.73
2019-01-31T01:17:34.640Z,99284.28
2019-01-31T01:20:30.500Z,99296.34
2019-01-31T01:23:44.898Z,99298.95
2019-01-31T01:26:54.532Z,99297.65
2019-01-31T01:30:09.963Z,99306.34
2019-01-31T01:32:47.433Z,99306.02
2019-01-31T01:36:00.363Z,99310.00
2019-01-31T01:39:06.637Z,99302.30
2019-01-31T01:42:15.127Z,99317.63
2019-01-31T01:45:08.484Z,99317.63
2019-01-31T01:48:04.910Z,99314.64
2019-01-31T01:50:52.503Z,99313.81
2019-01-31T01:53:44.387Z,99313.81
2019-01-31T01:56:30.689Z,99310.32
2019-01-31T01:59:42.059Z,99311.06
2019-01-31T02:02:32.485Z,99316.95
2019-01-31T02:05:15.610Z,99310.78
2019-01-31T02:08:14.823Z,99314.28
2019-01-31T02:11:07.378Z,99317.39
2019-01-31T02:13:49.182Z,99318.77
2019-01-31T02:16:51.590Z,99322.23
2019-01-31T02:20:25.079Z,99332.73
2019-01-31T02:23:46.854Z,99329.23
2019-01-31T02:26:43.410Z,99333.83
2019-01-31T02:30:08.638Z,99325.95
2019-01-31T02:33:01.133Z,99326.35
2019-01-31T02:36:15.284Z,99335.35
2019-01-31T02:39:42.353Z,99333.50
2019-01-31T02:42:23.897Z,99333.81
2019-01-31T02:45:04.930Z,99337.34
2019-01-31T02:48:18.962Z,99337.34
2019-01-31T02:51:31.156Z,99345.43
2019-01-31T02:54:20.544Z,99340.55
2019-01-31T02:57:44.965Z,99347.34
2019-01-31T03:00:40.396Z,99353.27
2019-01-31T03:04:13.252Z,99352.67
2019-01-31T03:07:12.734Z,99343.52
2019-01-31T03:10:24.142Z,99349.48
2019-01-31T03:13:34.325Z,99351.30
2019-01-31T03:16:33.483Z,99353.30
2019-01-31T03:19:30.276Z,99352.00
2019-01-31T03:22:37.634Z,99357.50
2019-01-31T03:25:50.223Z,99356.20
2019-01-31T03:28:44.643Z,99357.02
2019-01-31T03:31:51.454Z,99351.75
2019-01-31T03:35:09.296Z,99348.25
2019-01-31T03:38:26.928Z,99351.23
2019-01-31T03:41:51.124Z,99351.75
2019-01-31T03:44:45.852Z,99355.72
2019-01-31T03:48:10.104Z,99356.11
2019-01-31T03:51:12.767Z,99357.02
2019-01-31T03:54:34.060Z,99360.52
2019-01-31T03:57:42.294Z,99357.02
2019-01-31T04:00:56.890Z,99357.50
2019-01-31T04:03:55.034Z,99358.40
2019-01-31T04:06:35.256Z,99366.18
2019-01-31T04:09:10.476Z,99367.95
2019-01-31T04:11:41.634Z,99365.88
2019-01-31T04:14:12.908Z,99374.13
2019-01-31T04:16:44.264Z,99372.52
2019-01-31T04:19:15.549Z,99375.72
2019-01-31T04:21:46.758Z,99363.75
2019-01-31T04:24:17.890Z,99373.59
2019-01-31T04:26:49.089Z,99367.54
2019-01-31T04:29:20.322Z,99372.30
2019-01-31T04:31:51.558Z,99379.46
2019-01-31T04:34:22.709Z,99388.23
2019-01-31T04:36:53.926Z,99384.43
2019-01-31T04:39:25.127Z,99385.02
2019-01-31T04:41:56.314Z,99374.56
2019-01-31T04:44:27.527Z,99374.56
2019-01-31T04:46:58.941Z,99382.68
2019-01-31T04:49:30.255Z,99390.16
2019-01-31T04:52:01.469Z,99390.16
2019-01-31T04:54:32.745Z,99390.23
2019-01-31T04:57:03.996Z,99387.76
2019-01-31T04:59:35.185Z,99384.48
2019-01-31T05:02:06.467Z,99384.48
2019-01-31T05:04:37.793Z,99386.16
2019-01-31T05:07:08.983Z,99394.41
2019-01-31T05:09:40.297Z,99381.91
2019-01-31T05:12:11.662Z,99382.14
2019-01-31T05:14:43.977Z,99390.69
2019-01-31T05:17:15.291Z,99401.58
2019-01-31T05:19:46.604Z,99401.06
2019-01-31T05:22:17.799Z,99399.69
2019-01-31T05:24:49.022Z,99399.21
2019-01-31T05:27:20.239Z,99401.72
2019-01-31T05:29:51.418Z,99396.64
2019-01-31T05:32:22.859Z,99396.64
2019-01-31T05:34:54.017Z,99410.30
2019-01-31T05:37:25.380Z,99411.90
2019-01-31T05:39:56.831Z,99420.81
2019-01-31T05:42:28.056Z,99420.81
2019-01-31T05:45:00.732Z,99421.13
2019-01-31T05:47:32.005Z,99422.34
2019-01-31T05:50:03.274Z,99417.38
2019-01-31T05:52:34.588Z,99422.86
2019-01-31T05:55:06.262Z,99418.77
2019-01-31T05:57:37.697Z,99426.47
2019-01-31T06:00:14.874Z,99424.61
2019-01-31T06:02:46.077Z,99427.00
2019-01-31T06:05:17.456Z,99426.52
2019-01-31T06:07:48.715Z,99425.53
2019-01-31T06:10:19.915Z,99428.04
2019-01-31T06:12:51.114Z,99433.92
2019-01-31T06:15:22.354Z,99432.94
2019-01-31T06:17:53.689Z,99431.07
2019-01-31T06:20:25.429Z,99428.70
2019-01-31T06:22:56.656Z,99427.19
2019-01-31T06:25:28.110Z,99435.27
2019-01-31T06:28:00.246Z,99442.58
2019-01-31T06:30:31.536Z,99438.99
2019-01-31T06:33:02.788Z,99443.48
2019-01-31T06:35:34.001Z,99448.50
2019-01-31T06:38:05.359Z,99448.80
2019-01-31T06:40:36.588Z,99446.52
2019-01-31T06:43:07.920Z,99450.70
2019-01-31T06:45:39.124Z,99449.63
2019-01-31T06:48:10.436Z,99453.42
2019-01-31T06:50:41.592Z,99458.00
2019-01-31T06:53:12.796Z,99464.78
2019-01-31T06:55:43.953Z,99465.91
2019-01-31T06:58:15.183Z,99470.09
2019-01-31T07:00:46.582Z,99479.98
2019-01-31T07:03:17.793Z,99477.59
2019-01-31T07:05:49.050Z,99477.47
2019-01-31T07:08:21.019Z,99480.48
2019-01-31T07:10:52.304Z,99487.66
2019-01-31T07:13:23.527Z,99489.77
2019-01-31T07:15:54.909Z,99486.57
2019-01-31T07:18:26.087Z,99491.75
2019-01-31T07:20:58.535Z,99495.03
2019-01-31T07:23:29.762Z,99502.72
2019-01-31T07:26:01.028Z,99501.72
2019-01-31T07:28:32.222Z,99505.60
2019-01-31T07:31:03.668Z,99501.72
2019-01-31T07:33:34.903Z,99507.33
2019-01-31T07:36:06.192Z,99500.94
2019-01-31T07:38:38.885Z,99508.62
2019-01-31T07:41:11.226Z,99511.70
2019-01-31T07:43:42.664Z,99513.89
2019-01-31T07:46:13.816Z,99520.95
2019-01-31T07:48:45.046Z,99526.73
2019-01-31T07:51:16.300Z,99525.44
2019-01-31T07:53:49.221Z,99521.25
2019-01-31T07:56:20.525Z,99520.44
2019-01-31T07:58:51.858Z,99524.03
2019-01-31T08:01:23.130Z,99526.71
2019-01-31T08:04:02.184Z,99526.02
2019-01-31T08:06:27.323Z,99527.50
2019-01-31T08:08:58.757Z,99520.72
2019-01-31T08:11:31.690Z,99529.59
2019-01-31T08:14:02.941Z,99534.47
2019-01-31T08:16:34.130Z,99529.80
2019-01-31T08:19:06.273Z,99533.78
2019-01-31T08:21:37.536Z,99537.76
2019-01-31T08:24:09.674Z,99539.66
2019-01-31T08:26:41.000Z,99541.14
2019-01-31T08:29:12.242Z,99533.97
2019-01-31T08:31:43.523Z,99536.35
2019-01-31T08:34:14.698Z,99543.49
2019-01-31T08:36:46.110Z,99541.89
2019-01-31T08:39:17.326Z,99546.48
2019-01-31T08:41:48.534Z,99546.69
2019-01-31T08:44:19.801Z,99550.46
2019-01-31T08:46:51.134Z,99545.97
2019-01-31T08:49:22.327Z,99543.03
2019-01-31T08:51:53.631Z,99541.64
2019-01-31T08:54:24.951Z,99527.69
2019-01-31T08:56:56.183Z,99543.51
2019-01-31T08:59:27.361Z,99539.01
2019-01-31T09:01:58.622Z,99545.06
2019-01-31T09:04:29.791Z,99539.27
2019-01-31T09:07:01.093Z,99541.73
2019-01-31T09:09:32.291Z,99541.28
2019-01-31T09:12:14.781Z,99539.77
2019-01-31T09:14:37.074Z,99544.13
2019-01-31T09:17:08.328Z,99547.88
2019-01-31T09:19:39.539Z,99549.81
2019-01-31T09:22:25.265Z,99558.37
2019-01-31T09:25:24.545Z,99558.37
2019-01-31T09:28:22.866Z,99559.14
2019-01-31T09:31:56.356Z,99559.51
2019-01-31T09:34:35.511Z,99562.27
2019-01-31T09:37:53.580Z,99560.36
2019-01-31T09:40:46.116Z,99551.43
2019-01-31T09:43:33.450Z,99559.34
2019-01-31T09:46:27.238Z,99560.73
2019-01-31T09:49:28.333Z,99553.48
2019-01-31T09:52:14.722Z,99560.86
2019-01-31T09:55:07.868Z,99557.92
2019-01-31T09:58:07.559Z,99563.25
2019-01-31T10:01:23.865Z,99565.31
2019-01-31T10:04:20.824Z,99566.45
2019-01-31T10:07:20.398Z,99563.83
2019-01-31T10:10:35.639Z,99568.88
2019-01-31T10:13:38.457Z,99571.75
2019-01-31T10:16:30.558Z,99573.21
2019-01-31T10:19:49.040Z,99573.52
2019-01-31T10:23:03.406Z,99571.55
2019-01-31T10:26:12.879Z,99578.52
2019-01-31T10:29:02.404Z,99565.22
2019-01-31T10:32:26.754Z,99565.22
2019-01-31T10:35:50.904Z,99565.94
2019-01-31T10:39:21.221Z,99568.05
2019-01-31T10:42:37.183Z,99570.66
2019-01-31T10:46:04.596Z,99568.73
2019-01-31T10:49:06.068Z,99561.92
2019-01-31T10:52:10.737Z,99556.21
2019-01-31T10:55:09.798Z,99561.92
2019-01-31T10:58:06.068Z,99559.86
2019-01-31T11:00:52.340Z,99558.14
2019-01-31T11:03:51.735Z,99557.91
2019-01-31T11:07:09.526Z,99550.86
2019-01-31T11:10:32.977Z,99548.94
2019-01-31T11:13:53.465Z,99550.91
2019-01-31T11:16:57.168Z,99532.23
2019-01-31T11:20:12.914Z,99544.77
2019-01-31T11:23:20.449Z,99540.75
2019-01-31T11:26:38.960Z,99546.03
2019-01-31T11:29:43.039Z,99540.86
2019-01-31T11:32:51.364Z,99534.27
2019-01-31T11:35:58.592Z,99535.45
2019-01-31T11:39:19.685Z,99537.05
2019-01-31T11:42:50.155Z,99540.98
2019-01-31T11:45:45.232Z,99538.72
2019-01-31T11:48:50.805Z,99534.14
2019-01-31T11:51:51.176Z,99542.14
2019-01-31T11:54:48.163Z,99531.88
2019-01-31T11:58:03.766Z,99528.95
2019-01-31T12:00:34.983Z,99525.63
2019-01-31T12:03:07.162Z,99524.95
2019-01-31T12:05:38.464Z,99525.14
2019-01-31T12:08:09.835Z,99520.98
2019-01-31T12:10:41.035Z,99528.15
2019-01-31T12:13:22.804Z,99524.86
2019-01-31T12:15:45.395Z,99521.61
2019-01-31T12:18:16.739Z,99515.75
2019-01-31T12:20:47.931Z,99514.59
2019-01-31T12:23:19.284Z,99512.97
2019-01-31T12:25:50.548Z,99510.55
2019-01-31T12:28:21.996Z,99505.81
2019-01-31T12:30:53.206Z,99502.80
2019-01-31T12:33:24.395Z,99494.41
2019-01-31T12:35:55.543Z,99494.81
2019-01-31T12:38:36.494Z,99495.97
2019-01-31T12:40:59.799Z,99495.06
2019-01-31T12:43:35.153Z,99492.78
2019-01-31T12:46:03.992Z,99494.02
2019-01-31T12:48:35.155Z,99487.50
2019-01-31T12:51:06.389Z,99489.31
2019-01-31T12:53:38.864Z,99490.69
2019-01-31T12:56:10.159Z,99485.63
2019-01-31T12:58:41.367Z,99483.59
2019-01-31T13:01:13.181Z,99485.95
2019-01-31T13:03:44.399Z,99481.71
2019-01-31T13:06:15.697Z,99485.36
2019-01-31T13:08:46.956Z,99480.23
2019-01-31T13:11:18.555Z,99484.78
2019-01-31T13:13:49.860Z,99479.75
2019-01-31T13:16:21.067Z,99480.26
2019-01-31T13:18:52.276Z,99478.62
2019-01-31T13:21:23.578Z,99477.06
2019-01-31T13:23:54.777Z,99472.83
2019-01-31T13:26:26.061Z,99472.39
2019-01-31T13:28:57.415Z,99471.67
2019-01-31T13:31:28.639Z,99473.44
2019-01-31T13:33:59.826Z,99466.20
2019-01-31T13:36:31.330Z,99475.89
2019-01-31T13:39:02.606Z,99469.91
2019-01-31T13:41:33.945Z,99469.25
2019-01-31T13:44:05.348Z,99470.80
2019-01-31T13:46:36.498Z,99465.33
2019-01-31T13:49:07.779Z,99467.73
2019-01-31T13:51:38.983Z,99466.57
2019-01-31T13:54:10.340Z,99469.81
2019-01-31T13:56:45.519Z,99466.05
2019-01-31T13:59:14.613Z,99466.68
2019-01-31T14:01:45.870Z,99470.73
2019-01-31T14:04:17.092Z,99465.22
2019-01-31T14:06:48.238Z,99462.80
2019-01-31T14:09:19.446Z,99468.61
2019-01-31T14:11:50.794Z,99468.39
2019-01-31T14:14:22.123Z,99459.42
2019-01-31T14:16:53.372Z,99471.34
2019-01-31T14:19:24.605Z,99459.58
2019-01-31T14:21:56.224Z,99461.97
2019-01-31T14:24:27.697Z,99458.74
2019-01-31T14:26:58.945Z,99456.09
2019-01-31T14:29:30.257Z,99456.20
2019-01-31T14:32:01.444Z,99456.52
2019-01-31T14:34:32.822Z,99462.31
2019-01-31T14:37:04.050Z,99458.67
2019-01-31T14:39:35.317Z,99460.20
2019-01-31T14:42:06.728Z,99461.19
2019-01-31T14:44:37.960Z,99460.47
2019-01-31T14:47:09.212Z,99463.31
2019-01-31T14:49:40.406Z,99463.98
2019-01-31T14:52:11.534Z,99463.27
2019-01-31T14:54:42.794Z,99457.69
2019-01-31T14:57:13.953Z,99468.70
2019-01-31T14:59:45.191Z,99464.54
2019-01-31T15:02:16.431Z,99463.73
2019-01-31T15:04:47.583Z,99466.06
2019-01-31T15:07:18.830Z,99463.47
2019-01-31T15:09:50.953Z,99460.80
2019-01-31T15:12:22.141Z,99453.36
2019-01-31T15:14:53.291Z,99458.67
2019-01-31T15:17:24.653Z,99458.30
2019-01-31T15:19:55.788Z,99454.78
2019-01-31T15:22:27.045Z,99460.72
2019-01-31T15:24:58.263Z,99464.42
2019-01-31T15:27:29.451Z,99469.43
2019-01-31T15:30:00.803Z,99462.20
2019-01-31T15:32:33.117Z,99461.52
2019-01-31T15:35:04.698Z,99468.22
2019-01-31T15:37:35.971Z,99457.84
2019-01-31T15:40:09.865Z,99465.87
2019-01-31T15:42:41.235Z,99466.39
2019-01-31T15:45:12.658Z,99469.55
2019-01-31T15:47:43.898Z,99473.22
2019-01-31T15:50:16.064Z,99473.78
2019-01-31T15:52:47.273Z,99476.11
2019-01-31T15:55:20.256Z,99481.03
2019-01-31T15:57:51.435Z,99479.06
2019-01-31T16:00:44.990Z,99485.37
2019-01-31T16:03:18.349Z,99481.67
2019-01-31T16:05:49.652Z,99478.72
2019-01-31T16:08:21.398Z,99479.83
2019-01-31T16:10:52.724Z,99478.72
2019-01-31T16:13:24.030Z,99478.57
2019-01-31T16:15:55.294Z,99483.70
2019-01-31T16:18:26.642Z,99486.62
2019-01-31T16:20:57.829Z,99496.05
2019-01-31T16:23:28.996Z,99490.77
2019-01-31T16:26:00.481Z,99486.73
2019-01-31T16:28:31.682Z,99485.33
2019-01-31T16:31:03.591Z,99493.42
2019-01-31T16:33:34.928Z,99490.30
2019-01-31T16:36:06.362Z,99493.74
2019-01-31T16:38:37.605Z,99485.36
2019-01-31T16:41:08.827Z,99487.06
2019-01-31T16:43:40.079Z,99484.00
2019-01-31T16:46:11.274Z,99485.80
2019-01-31T16:48:42.512Z,99481.10
2019-01-31T16:51:13.723Z,99485.00
2019-01-31T16:53:45.107Z,99488.18
2019-01-31T16:56:16.373Z,99491.36
2019-01-31T16:58:47.545Z,99494.53
2019-01-31T17:01:18.799Z,99485.44
2019-01-31T17:03:50.110Z,99483.73
2019-01-31T17:06:21.358Z,99485.99
2019-01-31T17:08:52.746Z,99475.09
2019-01-31T17:11:23.985Z,99491.34
2019-01-31T17:13:55.305Z,99477.22
2019-01-31T17:16:26.569Z,99477.22
2019-01-31T17:18:57.790Z,99477.27
2019-01-31T17:21:29.001Z,99473.70
2019-01-31T17:24:00.173Z,99479.77
2019-01-31T17:26:31.451Z,99482.60
2019-01-31T17:29:02.698Z,99485.44
2019-01-31T17:31:37.359Z,99476.42
2019-01-31T17:34:08.558Z,99476.42
2019-01-31T17:36:39.882Z,99479.89
2019-01-31T17:39:11.608Z,99482.64
2019-01-31T17:41:43.140Z,99482.64
2019-01-31T17:44:14.485Z,99478.87
2019-01-31T17:46:45.793Z,99461.69
2019-01-31T17:49:17.131Z,99481.94
2019-01-31T17:51:48.289Z,99481.27
2019-01-31T17:54:19.583Z,99469.95
2019-01-31T17:56:50.949Z,99480.03
2019-01-31T17:59:22.545Z,99481.56
2019-01-31T18:01:55.414Z,99474.55
2019-01-31T18:04:26.868Z,99479.91
2019-01-31T18:06:58.168Z,99463.12
2019-01-31T18:09:40.271Z,99463.12
2019-01-31T18:12:11.474Z,99470.60
2019-01-31T18:14:42.713Z,99463.58
2019-01-31T18:17:14.083Z,99465.50
2019-01-31T18:19:45.422Z,99465.50
2019-01-31T18:22:16.725Z,99456.56
2019-01-31T18:24:47.956Z,99464.18
2019-01-31T18:27:19.258Z,99461.84
2019-01-31T18:29:50.601Z,99461.84
2019-01-31T18:32:21.907Z,99458.00
2019-01-31T18:34:53.197Z,99455.94
2019-01-31T18:37:24.446Z,99455.94
2019-01-31T18:39:55.745Z,99455.34
2019-01-31T18:42:31.955Z,99453.88
2019-01-31T18:45:08.341Z,99449.81
2019-01-31T18:47:39.722Z,99446.54
2019-01-31T18:50:14.747Z,99454.23
2019-01-31T18:52:46.103Z,99451.32
2019-01-31T18:55:17.637Z,99451.32
2019-01-31T18:57:49.375Z,99454.98
2019-01-31T19:00:26.859Z,99458.28
2019-01-31T19:02:58.122Z,99454.13
2019-01-31T19:05:29.842Z,99453.45
2019-01-31T19:08:01.043Z,99453.16
2019-01-31T19:10:42.849Z,99450.00
2019-01-31T19:13:12.603Z,99445.64
2019-01-31T19:15:46.564Z,99457.88
2019-01-31T19:18:29.235Z,99461.50
2019-01-31T19:21:02.579Z,99462.20
2019-01-31T19:26:50.100Z,99462.80
2019-01-31T19:29:25.094Z,99462.94
2019-01-31T19:32:05.008Z,99464.53
2019-01-31T19:34:41.397Z,99469.55
2019-01-31T19:37:12.983Z,99465.05
2019-01-31T19:39:47.486Z,99462.77
2019-01-31T19:45:55.685Z,99460.89
2019-01-31T19:46:01.659Z,99457.61
2019-01-31T19:49:01.351Z,99458.30
2019-01-31T19:51:45.540Z,99458.03
2019-01-31T19:54:30.588Z,99457.44
2019-01-31T19:57:07.652Z,99462.05
2019-01-31T20:02:40.694Z,99458.97
2019-01-31T20:05:16.480Z,99457.89
2019-01-31T20:08:11.683Z,99461.55
2019-01-31T20:10:43.189Z,99461.38
2019-01-31T20:13:14.471Z,99454.59
2019-01-31T20:16:07.683Z,99454.32
2019-01-31T20:18:41.407Z,99450.25
2019-01-31T20:21:20.526Z,99452.14
2019-01-31T20:23:55.507Z,99447.27
2019-01-31T20:26:54.248Z,99443.20
2019-01-31T20:29:30.164Z,99440.91
2019-01-31T20:32:52.521Z,99435.50
2019-01-31T20:36:37.166Z,99434.03
2019-01-31T20:38:50.748Z,99433.33
2019-01-31T20:41:54.205Z,99424.47
2019-01-31T20:47:27.110Z,99421.00
2019-01-31T20:50:15.087Z,99428.16
2019-01-31T20:52:56.766Z,99430.27
2019-01-31T20:55:43.603Z,99425.29
2019-01-31T21:01:38.259Z,99415.14
2019-01-31T21:04:42.716Z,99422.39
2019-01-31T21:07:16.164Z,99418.50
2019-01-31T21:09:59.778Z,99420.91
2019-01-31T21:12:35.553Z,99422.89
2019-01-31T21:15:20.060Z,99421.89
2019-01-31T21:18:18.048Z,99420.89
2019-01-31T21:21:00.954Z,99421.61
2019-01-31T21:23:35.374Z,99418.92
2019-01-31T21:26:24.765Z,99416.63
